createdAt,value
2022-08-20T00:02:14.650Z,99157.47
2022-08-20T00:04:44.258Z,99159.13
2022-08-20T00:07:13.274Z,99168.31
2022-08-20T00:09:41.698Z,99142.53
2022-08-20T00:12:11.324Z,99144.22
2022-08-20T00:14:39.961Z,99142.06
2022-08-20T00:17:08.354Z,99139.72
2022-08-20T00:19:36.578Z,99133.44
2022-08-20T00:22:06.339Z,99151.91
2022-08-20T00:24:34.944Z,99141.34
2022-08-20T00:27:03.449Z,99149.72
2022-08-20T00:29:31.674Z,99142.56
2022-08-20T00:31:59.899Z,99140.44
2022-08-20T00:34:29.388Z,99147.56
2022-08-20T00:36:57.792Z,99151.78
2022-08-20T00:39:27.474Z,99151.53
2022-08-20T00:41:55.609Z,99151.25
2022-08-20T00:44:24.538Z,99154.97
2022-08-20T00:46:53.772Z,99155.34
2022-08-20T00:49:24.998Z,99146.31
2022-08-20T00:51:57.065Z,99138.25
2022-08-20T00:54:28.757Z,99134.50
2022-08-20T00:57:01.547Z,99135.44
2022-08-20T00:59:31.729Z,99121.03
2022-08-20T01:02:01.868Z,99125.72
2022-08-20T01:04:33.445Z,99126.88
2022-08-20T01:07:02.147Z,99105.97
2022-08-20T01:09:49.553Z,99111.50
2022-08-20T01:12:20.068Z,99101.19
2022-08-20T01:14:48.707Z,99090.59
2022-08-20T01:17:20.917Z,99083.03
2022-08-20T01:19:51.550Z,99061.44
2022-08-20T01:22:42.969Z,99041.47
2022-08-20T01:25:18.549Z,99050.75
2022-08-20T01:27:48.183Z,99046.69
2022-08-20T01:30:29.198Z,99064.78
2022-08-20T01:32:57.300Z,99067.03
2022-08-20T01:35:26.066Z,99053.81
2022-08-20T01:37:54.261Z,99044.88
2022-08-20T01:40:30.838Z,99042.06
2022-08-20T01:43:00.414Z,99046.44
2022-08-20T01:45:30.360Z,99048.13
2022-08-20T01:47:59.755Z,99047.59
2022-08-20T01:50:30.362Z,99057.47
2022-08-20T01:53:13.051Z,99042.00
2022-08-20T01:55:41.332Z,99036.44
2022-08-20T01:58:11.051Z,99033.22
2022-08-20T02:00:39.377Z,99029.75
2022-08-20T02:03:07.909Z,99027.38
2022-08-20T02:05:36.272Z,99028.78
2022-08-20T02:08:05.407Z,99019.19
2022-08-20T02:10:34.478Z,99014.88
2022-08-20T02:13:02.878Z,99014.63
2022-08-20T02:15:35.163Z,99011.22
2022-08-20T02:18:10.927Z,99026.38
2022-08-20T02:20:39.987Z,99028.00
2022-08-20T02:23:08.639Z,99035.06
2022-08-20T02:25:38.821Z,99034.59
2022-08-20T02:28:09.303Z,99048.69
2022-08-20T02:30:42.112Z,99046.38
2022-08-20T02:33:12.173Z,99081.72
2022-08-20T02:35:41.226Z,99049.09
2022-08-20T02:38:09.344Z,99038.66
2022-08-20T02:40:37.687Z,99031.69
2022-08-20T02:43:06.135Z,99026.22
2022-08-20T02:45:37.572Z,99032.44
2022-08-20T02:48:07.313Z,99029.41
2022-08-20T02:50:35.480Z,99025.03
2022-08-20T02:53:03.919Z,99010.97
2022-08-20T02:55:32.013Z,99030.13
2022-08-20T02:58:01.306Z,99026.53
2022-08-20T03:00:37.783Z,99017.81
2022-08-20T03:03:08.270Z,99019.63
2022-08-20T03:05:36.455Z,99021.03
2022-08-20T03:08:09.139Z,99041.03
2022-08-20T03:10:38.654Z,99019.75
2022-08-20T03:13:11.321Z,99030.25
2022-08-20T03:15:40.775Z,99047.63
2022-08-20T03:18:10.835Z,99043.84
2022-08-20T03:20:39.279Z,99037.19
2022-08-20T03:23:08.353Z,99044.75
2022-08-20T03:25:36.576Z,99032.22
2022-08-20T03:28:05.747Z,99044.69
2022-08-20T03:30:34.092Z,99040.66
2022-08-20T03:33:02.190Z,99050.47
2022-08-20T03:35:33.416Z,99050.56
2022-08-20T03:38:01.558Z,99058.03
2022-08-20T03:40:32.159Z,99059.53
2022-08-20T03:43:00.720Z,99061.94
2022-08-20T03:45:30.583Z,99070.03
2022-08-20T03:47:58.880Z,99069.50
2022-08-20T03:50:30.228Z,99073.44
2022-08-20T03:53:01.408Z,99072.59
2022-08-20T03:55:31.022Z,99070.44
2022-08-20T03:58:02.792Z,99072.06
2022-08-20T04:00:33.646Z,99090.81
2022-08-20T04:03:02.076Z,99091.34
2022-08-20T04:05:31.500Z,99082.75
2022-08-20T04:08:03.080Z,99078.47
2022-08-20T04:10:31.983Z,99078.28
2022-08-20T04:13:00.313Z,99085.06
2022-08-20T04:15:30.022Z,99076.28
2022-08-20T04:17:59.932Z,99084.00
2022-08-20T04:20:28.370Z,99078.94
2022-08-20T04:22:59.039Z,99086.03
2022-08-20T04:25:30.084Z,99097.41
2022-08-20T04:28:06.505Z,99094.22
2022-08-20T04:30:34.942Z,99091.13
2022-08-20T04:33:03.212Z,99102.34
2022-08-20T04:35:32.617Z,99092.78
2022-08-20T04:38:01.716Z,99104.47
2022-08-20T04:40:45.679Z,99102.81
2022-08-20T04:43:14.095Z,99109.63
2022-08-20T04:45:43.715Z,99106.69
2022-08-20T04:48:15.137Z,99088.91
2022-08-20T04:50:46.828Z,99095.59
2022-08-20T04:53:20.666Z,99088.50
2022-08-20T04:55:53.621Z,99084.63
2022-08-20T04:58:24.749Z,99089.13
2022-08-20T05:01:01.202Z,99098.78
2022-08-20T05:03:29.958Z,99100.16
2022-08-20T05:05:59.044Z,99105.44
2022-08-20T05:08:27.795Z,99101.66
2022-08-20T05:11:06.749Z,99096.00
2022-08-20T05:13:46.172Z,99105.44
2022-08-20T05:16:16.264Z,99112.50
2022-08-20T05:18:45.710Z,99123.69
2022-08-20T05:21:21.053Z,99125.25
2022-08-20T05:23:49.702Z,99126.72
2022-08-20T05:26:20.372Z,99117.88
2022-08-20T05:28:57.977Z,99114.50
2022-08-20T05:31:31.224Z,99124.25
2022-08-20T05:34:01.193Z,99122.44
2022-08-20T05:36:29.513Z,99126.31
2022-08-20T05:38:57.638Z,99115.47
2022-08-20T05:41:30.173Z,99130.88
2022-08-20T05:44:01.449Z,99119.84
2022-08-20T05:46:31.758Z,99108.56
2022-08-20T05:49:01.799Z,99116.09
2022-08-20T05:51:30.859Z,99119.09
2022-08-20T05:53:59.501Z,99127.19
2022-08-20T05:56:31.274Z,99122.22
2022-08-20T05:59:02.654Z,99133.78
2022-08-20T06:01:31.108Z,99149.44
2022-08-20T06:04:16.540Z,99166.94
2022-08-20T06:06:47.161Z,99137.59
2022-08-20T06:09:28.546Z,99147.88
2022-08-20T06:12:02.788Z,99157.97
2022-08-20T06:14:34.235Z,99152.69
2022-08-20T06:17:06.764Z,99159.00
2022-08-20T06:19:36.468Z,99169.63
2022-08-20T06:22:17.792Z,99158.13
2022-08-20T06:24:51.357Z,99162.28
2022-08-20T06:27:21.372Z,99164.63
2022-08-20T06:29:50.293Z,99171.94
2022-08-20T06:32:19.943Z,99157.44
2022-08-20T06:35:02.164Z,99160.38
2022-08-20T06:37:32.332Z,99175.50
2022-08-20T06:40:03.599Z,99174.59
2022-08-20T06:42:33.463Z,99171.41
2022-08-20T06:45:04.938Z,99179.47
2022-08-20T06:47:33.733Z,99176.13
2022-08-20T06:50:01.876Z,99187.94
2022-08-20T06:52:51.561Z,99177.31
2022-08-20T06:55:18.900Z,99187.28
2022-08-20T06:57:50.286Z,99196.41
2022-08-20T07:00:21.105Z,99212.94
2022-08-20T07:02:51.395Z,99207.19
2022-08-20T07:05:25.158Z,99206.03
2022-08-20T07:07:56.448Z,99216.72
2022-08-20T07:10:34.143Z,99207.94
2022-08-20T07:13:11.799Z,99191.81
2022-08-20T07:15:47.941Z,99197.41
2022-08-20T07:18:28.237Z,99224.72
2022-08-20T07:21:00.126Z,99202.47
2022-08-20T07:23:31.500Z,99195.56
2022-08-20T07:26:06.297Z,99206.44
2022-08-20T07:28:36.767Z,99196.41
2022-08-20T07:31:23.790Z,99205.28
2022-08-20T07:33:53.419Z,99188.19
2022-08-20T07:36:22.546Z,99189.19
2022-08-20T07:38:52.732Z,99201.88
2022-08-20T07:41:24.233Z,99182.59
2022-08-20T07:43:54.770Z,99206.06
2022-08-20T07:46:23.418Z,99204.97
2022-08-20T07:48:57.485Z,99205.19
2022-08-20T07:51:26.608Z,99214.59
2022-08-20T07:53:58.293Z,99205.72
2022-08-20T07:56:30.117Z,99212.31
2022-08-20T07:59:01.577Z,99198.47
2022-08-20T08:01:32.315Z,99189.81
2022-08-20T08:04:01.195Z,99206.97
2022-08-20T08:06:32.615Z,99218.06
2022-08-20T08:09:04.812Z,99219.44
2022-08-20T08:11:34.856Z,99225.22
2022-08-20T08:14:07.020Z,99214.38
2022-08-20T08:16:35.891Z,99226.81
2022-08-20T08:19:06.679Z,99231.00
2022-08-20T08:21:34.898Z,99214.28
2022-08-20T08:24:03.295Z,99232.50
2022-08-20T08:26:31.679Z,99227.41
2022-08-20T08:28:59.893Z,99228.84
2022-08-20T08:31:29.493Z,99226.34
2022-08-20T08:33:57.769Z,99223.72
2022-08-20T08:36:26.894Z,99227.06
2022-08-20T08:38:56.696Z,99221.38
2022-08-20T08:41:29.560Z,99243.63
2022-08-20T08:44:03.503Z,99212.72
2022-08-20T08:46:38.719Z,99202.63
2022-08-20T08:49:06.914Z,99191.94
2022-08-20T08:51:39.785Z,99206.31
2022-08-20T08:54:09.065Z,99202.53
2022-08-20T08:56:37.574Z,99195.69
2022-08-20T08:59:07.784Z,99226.00
2022-08-20T09:01:54.449Z,99185.69
2022-08-20T09:04:31.755Z,99191.81
2022-08-20T09:07:00.790Z,99181.06
2022-08-20T09:09:30.605Z,99177.75
2022-08-20T09:12:04.915Z,99181.69
2022-08-20T09:14:33.186Z,99172.81
2022-08-20T09:17:02.994Z,99189.50
2022-08-20T09:19:31.183Z,99178.59
2022-08-20T09:21:59.299Z,99161.75
2022-08-20T09:24:28.902Z,99190.53
2022-08-20T09:26:56.979Z,99177.53
2022-08-20T09:29:25.103Z,99179.41
2022-08-20T09:32:06.561Z,99180.38
2022-08-20T09:34:37.159Z,99204.28
2022-08-20T09:37:05.641Z,99199.44
2022-08-20T09:39:34.002Z,99193.03
2022-08-20T09:42:08.682Z,99192.56
2022-08-20T09:44:37.290Z,99186.63
2022-08-20T09:47:07.413Z,99199.75
2022-08-20T09:49:37.349Z,99195.25
2022-08-20T09:52:08.704Z,99194.22
2022-08-20T09:54:37.935Z,99200.22
2022-08-20T09:57:07.845Z,99184.25
2022-08-20T09:59:37.598Z,99180.44
2022-08-20T10:02:07.180Z,99172.47
2022-08-20T10:07:03.333Z,99175.16
2022-08-20T10:09:31.521Z,99178.56
2022-08-20T10:11:59.754Z,99163.47
2022-08-20T10:14:27.935Z,99170.91
2022-08-20T10:16:59.895Z,99159.09
2022-08-20T10:19:31.334Z,99171.06
2022-08-20T10:21:59.588Z,99156.09
2022-08-20T10:24:28.536Z,99145.84
2022-08-20T10:26:57.696Z,99168.19
2022-08-20T10:29:25.971Z,99138.00
2022-08-20T10:31:55.034Z,99156.63
2022-08-20T10:34:23.226Z,99159.06
2022-08-20T10:36:53.120Z,99179.25
2022-08-20T10:39:21.540Z,99151.00
2022-08-20T10:41:50.739Z,99160.19
2022-08-20T10:44:18.893Z,99139.31
2022-08-20T10:46:47.119Z,99142.47
2022-08-20T10:49:15.312Z,99156.03
2022-08-20T10:51:43.499Z,99139.31
2022-08-20T10:54:12.998Z,99152.41
2022-08-20T10:56:41.345Z,99166.03
2022-08-20T10:59:09.606Z,99164.97
2022-08-20T11:01:37.867Z,99160.25
2022-08-20T11:04:06.227Z,99157.72
2022-08-20T11:06:34.448Z,99163.06
2022-08-20T11:09:02.643Z,99166.97
2022-08-20T11:11:32.184Z,99154.44
2022-08-20T11:14:00.341Z,99151.72
2022-08-20T11:16:28.617Z,99146.59
2022-08-20T11:18:56.812Z,99146.78
2022-08-20T11:21:24.966Z,99159.50
2022-08-20T11:23:53.175Z,99150.81
2022-08-20T11:26:24.118Z,99141.22
2022-08-20T11:28:53.651Z,99149.84
2022-08-20T11:31:21.720Z,99143.38
2022-08-20T11:33:49.892Z,99142.72
2022-08-20T11:36:18.019Z,99155.41
2022-08-20T11:38:46.100Z,99170.22
2022-08-20T11:41:14.546Z,99174.88
2022-08-20T11:43:54.963Z,99166.78
2022-08-20T11:46:32.978Z,99199.50
2022-08-20T11:49:01.440Z,99172.53
2022-08-20T11:51:29.726Z,99181.94
2022-08-20T11:54:03.582Z,99192.44
2022-08-20T11:56:32.323Z,99188.75
2022-08-20T11:59:00.472Z,99183.22
2022-08-20T12:01:28.695Z,99184.63
2022-08-20T12:03:58.214Z,99198.50
2022-08-20T12:06:26.429Z,99193.66
2022-08-20T12:08:54.632Z,99199.22
2022-08-20T12:11:22.760Z,99195.50
2022-08-20T12:13:50.917Z,99201.19
2022-08-20T12:16:19.718Z,99191.94
2022-08-20T12:18:48.543Z,99190.47
2022-08-20T12:21:18.256Z,99191.47
2022-08-20T12:23:46.908Z,99193.03
2022-08-20T12:26:16.766Z,99199.88
2022-08-20T12:28:45.023Z,99193.56
2022-08-20T12:31:13.558Z,99203.72
2022-08-20T12:33:41.750Z,99199.03
2022-08-20T12:36:11.038Z,99199.78
2022-08-20T12:38:40.817Z,99208.97
2022-08-20T12:41:09.043Z,99218.63
2022-08-20T12:43:37.218Z,99216.91
2022-08-20T12:46:05.481Z,99205.72
2022-08-20T12:48:33.777Z,99207.97
2022-08-20T12:51:01.885Z,99211.22
2022-08-20T12:53:30.202Z,99187.81
2022-08-20T12:56:02.576Z,99191.06
2022-08-20T12:58:30.798Z,99196.97
2022-08-20T13:00:59.014Z,99181.22
2022-08-20T13:03:32.253Z,99181.72
2022-08-20T13:06:02.278Z,99209.59
2022-08-20T13:08:30.489Z,99194.50
2022-08-20T13:11:02.833Z,99193.16
2022-08-20T13:13:31.078Z,99180.56
2022-08-20T13:15:59.254Z,99177.13
2022-08-20T13:18:28.152Z,99171.72
2022-08-20T13:20:56.357Z,99165.28
2022-08-20T13:23:24.463Z,99175.28
2022-08-20T13:25:52.829Z,99176.06
2022-08-20T13:28:22.350Z,99171.63
2022-08-20T13:30:50.649Z,99167.38
2022-08-20T13:33:20.093Z,99169.44
2022-08-20T13:35:50.752Z,99173.91
2022-08-20T13:38:18.972Z,99156.31
2022-08-20T13:40:48.953Z,99171.41
2022-08-20T13:43:18.742Z,99167.91
2022-08-20T13:45:48.539Z,99167.00
2022-08-20T13:48:16.796Z,99154.63
2022-08-20T13:50:47.378Z,99170.56
2022-08-20T13:53:16.654Z,99151.75
2022-08-20T13:55:45.577Z,99150.09
2022-08-20T13:58:13.812Z,99141.50
2022-08-20T14:00:42.024Z,99171.06
2022-08-20T14:03:12.153Z,99156.41
2022-08-20T14:05:42.406Z,99175.50
2022-08-20T14:08:12.956Z,99159.44
2022-08-20T14:10:42.579Z,99156.59
2022-08-20T14:13:15.312Z,99160.06
2022-08-20T14:15:44.244Z,99149.94
2022-08-20T14:18:14.531Z,99161.56
2022-08-20T14:20:45.804Z,99160.38
2022-08-20T14:23:14.706Z,99162.13
2022-08-20T14:25:43.102Z,99180.38
2022-08-20T14:28:12.700Z,99169.22
2022-08-20T14:30:41.365Z,99164.34
2022-08-20T14:33:09.613Z,99162.13
2022-08-20T14:35:39.487Z,99172.03
2022-08-20T14:38:08.464Z,99159.75
2022-08-20T14:40:37.211Z,99175.78
2022-08-20T14:43:05.347Z,99172.38
2022-08-20T14:45:33.670Z,99169.44
2022-08-20T14:48:02.020Z,99176.06
2022-08-20T14:50:32.828Z,99179.97
2022-08-20T14:53:02.824Z,99181.97
2022-08-20T14:55:33.330Z,99170.50
2022-08-20T14:58:01.539Z,99184.84
2022-08-20T15:00:33.921Z,99179.91
2022-08-20T15:03:02.078Z,99197.31
2022-08-20T15:05:30.471Z,99186.28
2022-08-20T15:07:59.491Z,99197.75
2022-08-20T15:10:32.540Z,99193.13
2022-08-20T15:13:01.301Z,99196.41
2022-08-20T15:15:30.044Z,99202.22
2022-08-20T15:18:01.031Z,99188.47
2022-08-20T15:20:31.849Z,99193.28
2022-08-20T15:23:00.266Z,99193.13
2022-08-20T15:25:36.573Z,99187.09
2022-08-20T15:28:06.771Z,99205.53
2022-08-20T15:30:35.325Z,99197.44
2022-08-20T15:33:03.625Z,99180.69
2022-08-20T15:35:31.913Z,99190.16
2022-08-20T15:38:00.697Z,99190.22
2022-08-20T15:40:31.899Z,99182.06
2022-08-20T15:43:01.799Z,99197.66
2022-08-20T15:45:30.403Z,99180.97
2022-08-20T15:48:04.797Z,99178.56
2022-08-20T15:50:49.561Z,99197.56
2022-08-20T15:53:23.181Z,99210.53
2022-08-20T15:55:59.209Z,99211.69
2022-08-20T15:58:34.311Z,99199.28
2022-08-20T16:01:24.217Z,99192.94
2022-08-20T16:04:20.139Z,99192.75
2022-08-20T16:06:48.831Z,99192.50
2022-08-20T16:09:32.955Z,99195.56
2022-08-20T16:12:09.076Z,99199.94
2022-08-20T16:14:40.030Z,99187.00
2022-08-20T16:17:12.665Z,99190.38
2022-08-20T16:19:49.732Z,99193.38
2022-08-20T16:22:19.978Z,99200.06
2022-08-20T16:24:52.608Z,99191.69
2022-08-20T16:27:33.546Z,99194.69
2022-08-20T16:30:05.788Z,99199.06
2022-08-20T16:32:53.926Z,99194.56
2022-08-20T16:35:30.326Z,99195.28
2022-08-20T16:38:09.243Z,99188.00
2022-08-20T16:40:44.203Z,99187.66
2022-08-20T16:43:27.945Z,99199.16
2022-08-20T16:46:02.810Z,99197.53
2022-08-20T16:48:35.572Z,99198.56
2022-08-20T16:51:09.751Z,99204.53
2022-08-20T16:53:40.491Z,99194.94
2022-08-20T16:56:11.154Z,99195.66
2022-08-20T16:58:45.687Z,99211.88
2022-08-20T17:01:15.903Z,99211.56
2022-08-20T17:03:50.692Z,99216.44
2022-08-20T17:06:26.262Z,99211.13
2022-08-20T17:08:55.101Z,99212.28
2022-08-20T17:11:26.504Z,99222.38
2022-08-20T17:14:07.287Z,99228.66
2022-08-20T17:16:37.115Z,99227.84
2022-08-20T17:19:11.451Z,99219.94
2022-08-20T17:21:40.065Z,99214.41
2022-08-20T17:24:16.980Z,99228.25
2022-08-20T17:26:47.074Z,99225.41
2022-08-20T17:29:19.218Z,99228.13
2022-08-20T17:31:50.409Z,99225.53
2022-08-20T17:34:22.408Z,99225.06
2022-08-20T17:36:56.269Z,99236.22
2022-08-20T17:39:26.395Z,99224.81
2022-08-20T17:41:58.462Z,99238.91
2022-08-20T17:44:30.264Z,99233.66
2022-08-20T17:47:00.307Z,99232.91
2022-08-20T17:49:35.733Z,99231.59
2022-08-20T17:52:07.608Z,99245.31
2022-08-20T17:54:38.311Z,99235.03
2022-08-20T17:57:09.107Z,99242.56
2022-08-20T17:59:59.702Z,99230.09
2022-08-20T18:02:29.642Z,99234.41
2022-08-20T18:04:58.016Z,99233.56
2022-08-20T18:07:28.469Z,99249.41
2022-08-20T18:09:59.840Z,99251.47
2022-08-20T18:12:34.979Z,99249.41
2022-08-20T18:15:09.949Z,99240.63
2022-08-20T18:18:03.235Z,99245.06
2022-08-20T18:20:47.872Z,99245.00
2022-08-20T18:23:19.534Z,99272.88
2022-08-20T18:25:51.705Z,99252.03
2022-08-20T18:28:23.206Z,99261.69
2022-08-20T18:30:57.155Z,99253.44
2022-08-20T18:33:30.490Z,99268.88
2022-08-20T18:36:14.503Z,99264.22
2022-08-20T18:38:43.582Z,99256.81
2022-08-20T18:41:27.680Z,99253.81
2022-08-20T18:44:06.572Z,99271.56
2022-08-20T18:46:36.522Z,99278.53
2022-08-20T18:49:07.170Z,99256.16
2022-08-20T18:51:44.100Z,99262.97
2022-08-20T18:54:23.745Z,99269.97
2022-08-20T18:57:04.764Z,99270.94
2022-08-20T18:59:35.047Z,99268.22
2022-08-20T19:02:15.737Z,99278.94
2022-08-20T19:04:44.834Z,99277.78
2022-08-20T19:07:20.696Z,99282.09
2022-08-20T19:10:27.778Z,99291.34
2022-08-20T19:13:20.215Z,99287.06
2022-08-20T19:15:51.571Z,99278.44
2022-08-20T19:18:25.490Z,99288.63
2022-08-20T19:20:57.462Z,99287.13
2022-08-20T19:23:28.507Z,99290.31
2022-08-20T19:25:58.963Z,99290.72
2022-08-20T19:28:29.499Z,99290.22
2022-08-20T19:31:10.528Z,99289.78
2022-08-20T19:33:44.226Z,99299.66
2022-08-20T19:36:14.764Z,99288.63
2022-08-20T19:38:47.022Z,99284.25
2022-08-20T19:57:28.773Z,99272.94
2022-08-20T20:20:15.954Z,99283.84
2022-08-20T20:22:50.907Z,99275.50
2022-08-20T20:25:21.323Z,99268.91
2022-08-20T20:27:50.761Z,99271.81
2022-08-20T20:30:24.073Z,99270.28
2022-08-20T20:32:52.363Z,99267.50
2022-08-20T20:35:29.840Z,99259.00
2022-08-20T20:38:02.126Z,99259.88
2022-08-20T20:40:33.327Z,99268.19
2022-08-20T20:43:06.431Z,99261.09
2022-08-20T20:45:37.329Z,99254.56
2022-08-20T20:48:18.590Z,99268.00
2022-08-20T20:50:49.064Z,99263.25
2022-08-20T20:53:32.305Z,99287.31
2022-08-20T20:56:31.740Z,99279.78
2022-08-20T20:59:05.302Z,99282.31
2022-08-20T21:01:46.193Z,99278.38
2022-08-20T21:04:16.742Z,99281.66
2022-08-20T21:06:46.390Z,99290.47
2022-08-20T21:09:14.663Z,99297.13
2022-08-20T21:11:42.919Z,99291.94
2022-08-20T21:14:11.102Z,99295.66
2022-08-20T21:16:39.192Z,99309.16
2022-08-20T21:19:09.972Z,99311.50
2022-08-20T21:21:38.292Z,99305.88
2022-08-20T21:24:08.549Z,99313.16
2022-08-20T21:26:37.405Z,99301.72
2022-08-20T21:29:06.008Z,99298.78
2022-08-20T21:31:37.340Z,99302.56
2022-08-20T21:34:06.739Z,99315.91
2022-08-20T21:36:34.892Z,99305.00
2022-08-20T21:39:03.017Z,99323.94
2022-08-20T21:41:32.957Z,99312.53
2022-08-20T21:44:02.400Z,99304.19
2022-08-20T21:46:32.517Z,99309.81
2022-08-20T21:49:00.574Z,99307.50
2022-08-20T21:51:30.749Z,99296.66
2022-08-20T21:54:01.193Z,99290.84
2022-08-20T21:56:29.481Z,99283.16
2022-08-20T21:59:04.015Z,99285.59
2022-08-20T22:01:32.707Z,99284.59
2022-08-20T22:04:00.941Z,99277.09
2022-08-20T22:06:29.292Z,99283.75
2022-08-20T22:08:57.399Z,99280.38
2022-08-20T22:11:25.574Z,99278.34
2022-08-20T22:13:54.266Z,99283.75
2022-08-20T22:16:24.349Z,99270.03
2022-08-20T22:18:53.630Z,99278.53
2022-08-20T22:21:24.376Z,99272.94
2022-08-20T22:23:53.966Z,99283.94
2022-08-20T22:26:22.717Z,99266.66
2022-08-20T22:28:55.688Z,99268.75
2022-08-20T22:31:27.923Z,99263.97
2022-08-20T22:33:56.546Z,99267.28
2022-08-20T22:36:25.182Z,99256.25
2022-08-20T22:38:55.005Z,99255.81
2022-08-20T22:41:24.009Z,99259.59
2022-08-20T22:43:56.721Z,99262.09
2022-08-20T22:46:28.352Z,99251.88
2022-08-20T22:48:57.362Z,99252.94
2022-08-20T22:51:30.170Z,99251.91
2022-08-20T22:53:59.256Z,99256.03
2022-08-20T22:56:27.408Z,99258.78
2022-08-20T22:58:59.573Z,99245.88
2022-08-20T23:01:29.472Z,99250.25
2022-08-20T23:03:58.801Z,99243.16
2022-08-20T23:06:27.920Z,99245.44
2022-08-20T23:08:56.279Z,99237.75
2022-08-20T23:11:24.447Z,99240.91
2022-08-20T23:13:52.616Z,99245.28
2022-08-20T23:16:20.754Z,99233.81
2022-08-20T23:18:50.254Z,99239.84
2022-08-20T23:21:18.861Z,99241.06
2022-08-20T23:23:47.052Z,99232.56
2022-08-20T23:26:18.868Z,99230.69
2022-08-20T23:28:47.018Z,99232.94
2022-08-20T23:31:17.860Z,99242.91
2022-08-20T23:33:45.963Z,99247.72
2022-08-20T23:36:17.032Z,99241.69
2022-08-20T23:38:45.178Z,99233.75
2022-08-20T23:41:13.382Z,99241.84
2022-08-20T23:44:01.482Z,99231.69
2022-08-20T23:46:31.050Z,99227.03
2022-08-20T23:48:59.100Z,99224.53
2022-08-20T23:51:28.688Z,99228.81
2022-08-20T23:53:57.014Z,99240.63
2022-08-20T23:56:25.196Z,99223.50
2022-08-20T23:58:56.051Z,99235.97
